createdAt,value
2019-01-21T00:01:06.302Z,101313.12
2019-01-21T00:03:36.504Z,101318.65
2019-01-21T00:06:06.582Z,101324.92
2019-01-21T00:08:36.916Z,101330.00
2019-01-21T00:11:06.747Z,101325.17
2019-01-21T00:13:36.956Z,101333.08
2019-01-21T00:16:06.557Z,101334.84
2019-01-21T00:18:36.663Z,101338.37
2019-01-21T00:21:06.302Z,101339.21
2019-01-21T00:23:36.818Z,101349.94
2019-01-21T00:26:06.779Z,101361.61
2019-01-21T00:28:36.547Z,101361.19
2019-01-21T00:31:06.333Z,101365.69
2019-01-21T00:33:36.048Z,101368.24
2019-01-21T00:36:06.412Z,101372.86
2019-01-21T00:38:37.819Z,101379.29
2019-01-21T00:41:15.970Z,101383.66
2019-01-21T00:43:46.326Z,101387.20
2019-01-21T00:46:16.280Z,101394.73
2019-01-21T00:48:46.819Z,101395.02
2019-01-21T00:51:16.884Z,101390.27
2019-01-21T00:56:25.015Z,101395.72
2019-01-21T00:58:54.984Z,101402.08
2019-01-21T01:01:24.773Z,101403.08
2019-01-21T01:03:55.028Z,101409.73
2019-01-21T01:06:25.358Z,101409.90
2019-01-21T01:08:55.327Z,101414.19
2019-01-21T01:11:25.514Z,101410.73
2019-01-21T01:13:55.289Z,101408.97
2019-01-21T01:16:25.687Z,101416.87
2019-01-21T01:18:55.758Z,101418.47
2019-01-21T01:21:25.831Z,101426.55
2019-01-21T01:23:55.936Z,101434.53
2019-01-21T01:26:26.086Z,101437.59
2019-01-21T01:28:56.185Z,101445.41
2019-01-21T01:31:26.476Z,101440.88
2019-01-21T01:33:56.439Z,101446.27
2019-01-21T01:36:26.771Z,101449.30
2019-01-21T01:38:56.694Z,101452.56
2019-01-21T01:41:27.103Z,101454.30
2019-01-21T01:43:56.575Z,101457.09
2019-01-21T01:46:26.527Z,101470.52
2019-01-21T01:48:56.290Z,101467.98
2019-01-21T01:51:26.092Z,101472.10
2019-01-21T01:53:56.129Z,101472.08
2019-01-21T01:56:26.268Z,101470.56
2019-01-21T01:58:56.566Z,101480.16
2019-01-21T02:01:27.671Z,101479.46
2019-01-21T02:03:57.755Z,101491.48
2019-01-21T02:06:27.650Z,101487.22
2019-01-21T02:08:57.910Z,101487.32
2019-01-21T02:11:28.027Z,101500.39
2019-01-21T02:13:57.812Z,101505.61
2019-01-21T02:16:27.929Z,101510.16
2019-01-21T02:18:57.748Z,101514.31
2019-01-21T02:21:28.081Z,101519.44
2019-01-21T02:23:57.578Z,101526.44
2019-01-21T02:26:27.891Z,101534.77
2019-01-21T02:28:58.281Z,101532.55
2019-01-21T02:31:31.163Z,101547.29
2019-01-21T02:34:02.973Z,101556.92
2019-01-21T02:36:33.077Z,101559.43
2019-01-21T02:39:04.120Z,101557.08
2019-01-21T02:41:34.057Z,101566.52
2019-01-21T02:44:04.156Z,101564.73
2019-01-21T02:46:33.539Z,101562.35
2019-01-21T02:49:03.247Z,101572.80
2019-01-21T02:51:33.171Z,101578.19
2019-01-21T02:54:02.931Z,101580.85
2019-01-21T02:56:32.535Z,101586.40
2019-01-21T02:59:02.320Z,101587.75
2019-01-21T03:01:40.013Z,101600.75
2019-01-21T03:04:09.995Z,101603.27
2019-01-21T03:06:39.567Z,101604.33
2019-01-21T03:09:09.415Z,101616.34
2019-01-21T03:11:39.523Z,101616.87
2019-01-21T03:16:38.107Z,101627.88
2019-01-21T03:19:07.442Z,101632.48
2019-01-21T03:21:36.650Z,101638.19
2019-01-21T03:24:06.367Z,101640.73
2019-01-21T03:26:35.541Z,101636.86
2019-01-21T03:29:04.617Z,101641.78
2019-01-21T03:31:33.809Z,101640.71
2019-01-21T03:34:03.178Z,101643.71
2019-01-21T03:36:32.756Z,101646.96
2019-01-21T03:47:07.998Z,101658.53
2019-01-21T03:49:37.530Z,101664.91
2019-01-21T03:52:06.719Z,101661.78
2019-01-21T03:54:36.250Z,101659.53
2019-01-21T04:10:39.017Z,101655.09
2019-01-21T04:43:01.506Z,101634.91
2019-01-21T04:45:42.737Z,101639.36
2019-01-21T04:48:24.029Z,101629.22
2019-01-21T04:51:04.594Z,101631.61
2019-01-21T04:53:44.686Z,101627.95
2019-01-21T04:56:25.691Z,101624.23
2019-01-21T04:59:06.655Z,101622.51
2019-01-21T05:01:47.288Z,101616.45
2019-01-21T05:04:28.507Z,101615.62
2019-01-21T05:07:08.904Z,101612.13
2019-01-21T05:09:50.106Z,101608.14
2019-01-21T05:12:30.459Z,101606.31
2019-01-21T05:15:11.118Z,101598.61
2019-01-21T05:17:52.022Z,101593.45
2019-01-21T05:20:33.294Z,101587.98
2019-01-21T05:23:14.609Z,101589.75
2019-01-21T05:25:55.768Z,101578.09
2019-01-21T05:28:36.925Z,101584.05
2019-01-21T05:31:17.466Z,101574.91
2019-01-21T05:33:57.732Z,101568.38
2019-01-21T05:36:38.078Z,101559.53
2019-01-21T05:39:19.085Z,101557.94
2019-01-21T05:41:59.445Z,101548.59
2019-01-21T05:44:40.097Z,101544.66
2019-01-21T05:47:20.491Z,101537.75
2019-01-21T05:50:01.360Z,101532.50
2019-01-21T05:52:42.065Z,101526.27
2019-01-21T05:55:22.669Z,101525.93
2019-01-21T05:58:03.022Z,101520.63
2019-01-21T06:00:43.793Z,101514.04
2019-01-21T06:03:23.941Z,101504.70
2019-01-21T06:06:04.787Z,101501.16
2019-01-21T06:08:45.278Z,101484.37
2019-01-21T06:11:25.861Z,101476.89
2019-01-21T06:14:06.663Z,101470.02
2019-01-21T06:16:47.530Z,101470.13
2019-01-21T06:19:28.388Z,101462.53
2019-01-21T06:22:09.731Z,101457.91
2019-01-21T06:24:50.338Z,101448.48
2019-01-21T06:27:30.753Z,101442.23
2019-01-21T06:30:11.934Z,101431.04
2019-01-21T06:32:53.056Z,101430.55
2019-01-21T06:35:34.482Z,101427.64
2019-01-21T06:38:15.332Z,101425.37
2019-01-21T06:40:56.273Z,101418.23
2019-01-21T06:43:37.267Z,101412.03
2019-01-21T06:46:18.254Z,101402.93
2019-01-21T06:49:04.688Z,101401.16
2019-01-21T06:51:40.894Z,101390.75
2019-01-21T06:54:22.149Z,101389.37
2019-01-21T06:57:03.312Z,101380.73
2019-01-21T06:59:44.460Z,101372.44
2019-01-21T07:02:25.291Z,101370.20
2019-01-21T07:05:06.679Z,101365.02
2019-01-21T07:07:47.561Z,101361.85
2019-01-21T07:10:28.496Z,101354.80
2019-01-21T07:13:09.276Z,101349.55
2019-01-21T07:15:50.791Z,101348.19
2019-01-21T07:18:31.660Z,101343.27
2019-01-21T07:21:12.060Z,101337.33
2019-01-21T07:23:53.097Z,101338.14
2019-01-21T07:26:34.253Z,101340.38
2019-01-21T07:29:14.711Z,101334.45
2019-01-21T07:31:55.695Z,101322.59
2019-01-21T07:34:36.890Z,101323.55
2019-01-21T07:37:17.357Z,101316.32
2019-01-21T07:39:57.970Z,101311.80
2019-01-21T07:42:38.859Z,101313.55
2019-01-21T07:45:19.421Z,101312.11
2019-01-21T07:48:00.061Z,101301.95
2019-01-21T07:50:40.724Z,101305.33
2019-01-21T07:53:21.139Z,101296.84
2019-01-21T07:56:01.565Z,101299.99
2019-01-21T07:58:42.912Z,101293.38
2019-01-21T08:01:23.921Z,101294.73
2019-01-21T08:04:04.962Z,101281.13
2019-01-21T08:06:46.060Z,101283.94
2019-01-21T08:09:27.091Z,101277.59
2019-01-21T08:12:07.683Z,101272.95
2019-01-21T08:14:49.031Z,101278.27
2019-01-21T08:17:30.089Z,101271.55
2019-01-21T08:20:11.286Z,101271.92
2019-01-21T08:22:52.519Z,101265.39
2019-01-21T08:25:33.090Z,101266.97
2019-01-21T08:28:14.516Z,101258.54
2019-01-21T08:30:55.587Z,101261.83
2019-01-21T08:33:36.206Z,101258.24
2019-01-21T08:36:17.091Z,101257.13
2019-01-21T08:38:57.750Z,101245.05
2019-01-21T08:41:38.357Z,101246.27
2019-01-21T08:44:19.046Z,101241.64
2019-01-21T08:47:00.183Z,101235.51
2019-01-21T08:49:41.541Z,101232.07
2019-01-21T08:52:22.427Z,101234.11
2019-01-21T08:55:02.993Z,101230.31
2019-01-21T08:57:43.706Z,101221.83
2019-01-21T09:00:24.768Z,101217.81
2019-01-21T09:03:05.920Z,101217.13
2019-01-21T09:05:46.922Z,101214.09
2019-01-21T09:08:28.596Z,101214.34
2019-01-21T09:11:09.072Z,101208.48
2019-01-21T09:13:50.091Z,101198.27
2019-01-21T09:16:30.750Z,101193.95
2019-01-21T09:19:12.030Z,101188.29
2019-01-21T09:21:52.424Z,101184.12
2019-01-21T09:24:33.179Z,101184.39
2019-01-21T09:27:14.051Z,101181.98
2019-01-21T09:29:54.895Z,101180.82
2019-01-21T09:32:35.843Z,101182.92
2019-01-21T09:35:16.502Z,101172.90
2019-01-21T09:37:57.541Z,101175.66
2019-01-21T09:40:38.411Z,101173.41
2019-01-21T09:43:19.406Z,101171.80
2019-01-21T09:46:00.058Z,101174.31
2019-01-21T09:48:40.644Z,101168.70
2019-01-21T09:51:21.938Z,101166.14
2019-01-21T09:54:03.544Z,101162.34
2019-01-21T09:56:44.517Z,101166.80
2019-01-21T09:59:25.445Z,101169.67
2019-01-21T10:02:06.243Z,101164.91
2019-01-21T10:04:47.137Z,101161.59
2019-01-21T10:07:28.333Z,101163.38
2019-01-21T10:10:09.625Z,101162.08
2019-01-21T10:12:50.580Z,101161.38
2019-01-21T10:15:30.718Z,101159.72
2019-01-21T10:18:11.965Z,101150.25
2019-01-21T10:20:52.778Z,101148.98
2019-01-21T10:23:33.396Z,101149.41
2019-01-21T10:26:13.867Z,101149.09
2019-01-21T10:28:55.322Z,101143.19
2019-01-21T10:31:36.319Z,101148.53
2019-01-21T10:34:17.473Z,101154.55
2019-01-21T10:36:58.232Z,101148.25
2019-01-21T10:39:38.862Z,101144.55
2019-01-21T10:42:19.590Z,101144.94
2019-01-21T10:44:59.918Z,101145.48
2019-01-21T10:47:40.465Z,101148.67
2019-01-21T10:50:21.954Z,101142.33
2019-01-21T10:53:02.822Z,101146.20
2019-01-21T10:55:44.022Z,101144.74
2019-01-21T10:58:24.584Z,101146.39
2019-01-21T11:01:05.371Z,101152.88
2019-01-21T11:03:46.137Z,101155.00
2019-01-21T11:06:26.839Z,101151.06
2019-01-21T11:09:08.010Z,101149.08
2019-01-21T11:11:53.984Z,101151.13
2019-01-21T11:14:29.939Z,101154.48
2019-01-21T11:17:11.097Z,101161.16
2019-01-21T11:19:52.086Z,101158.48
2019-01-21T11:22:33.141Z,101154.81
2019-01-21T11:25:14.301Z,101153.41
2019-01-21T11:27:55.461Z,101154.52
2019-01-21T11:30:36.209Z,101158.44
2019-01-21T11:33:17.264Z,101155.66
2019-01-21T11:35:58.391Z,101154.36
2019-01-21T11:38:38.744Z,101147.56
2019-01-21T11:41:19.675Z,101154.38
2019-01-21T11:44:00.639Z,101147.39
2019-01-21T11:46:41.558Z,101152.52
2019-01-21T11:49:22.537Z,101146.64
2019-01-21T11:52:03.256Z,101150.41
2019-01-21T11:54:44.035Z,101155.28
2019-01-21T11:57:25.649Z,101158.77
2019-01-21T12:00:07.353Z,101154.87
2019-01-21T12:02:48.377Z,101159.73
2019-01-21T12:05:29.145Z,101155.39
2019-01-21T12:08:10.272Z,101159.37
2019-01-21T12:10:51.105Z,101162.88
2019-01-21T12:13:31.868Z,101168.25
2019-01-21T12:16:12.652Z,101171.84
2019-01-21T12:18:54.078Z,101170.92
2019-01-21T12:21:35.393Z,101175.46
2019-01-21T12:24:16.067Z,101183.24
2019-01-21T12:26:57.293Z,101185.00
2019-01-21T12:29:38.008Z,101188.50
2019-01-21T12:32:18.889Z,101189.50
2019-01-21T12:34:59.862Z,101187.11
2019-01-21T12:37:40.441Z,101186.83
2019-01-21T12:40:21.722Z,101187.38
2019-01-21T12:43:02.588Z,101190.48
2019-01-21T12:45:43.758Z,101189.18
2019-01-21T12:48:24.907Z,101191.69
2019-01-21T12:51:05.414Z,101193.88
2019-01-21T12:53:46.371Z,101196.47
2019-01-21T12:56:26.998Z,101204.20
2019-01-21T12:59:07.894Z,101213.32
2019-01-21T13:01:48.574Z,101214.65
2019-01-21T13:04:29.570Z,101216.94
2019-01-21T13:07:10.512Z,101219.93
2019-01-21T13:09:51.395Z,101223.75
2019-01-21T13:12:32.192Z,101219.93
2019-01-21T13:15:12.942Z,101225.42
2019-01-21T13:17:54.343Z,101225.69
2019-01-21T13:20:34.789Z,101228.80
2019-01-21T13:23:15.214Z,101241.00
2019-01-21T13:25:56.713Z,101235.64
2019-01-21T13:28:38.209Z,101241.25
2019-01-21T13:31:18.480Z,101249.14
2019-01-21T13:33:58.837Z,101253.94
2019-01-21T13:36:39.211Z,101260.38
2019-01-21T13:39:19.679Z,101259.53
2019-01-21T13:42:00.305Z,101268.23
2019-01-21T13:44:42.003Z,101265.94
2019-01-21T13:47:22.599Z,101267.37
2019-01-21T13:50:03.273Z,101264.00
2019-01-21T13:52:44.119Z,101263.63
2019-01-21T13:55:25.981Z,101262.77
2019-01-21T13:58:06.847Z,101268.05
2019-01-21T14:00:47.498Z,101266.63
2019-01-21T14:03:28.536Z,101272.46
2019-01-21T14:06:08.918Z,101278.30
2019-01-21T14:08:49.760Z,101281.63
2019-01-21T14:11:30.096Z,101281.33
2019-01-21T14:14:10.785Z,101285.69
2019-01-21T14:16:51.535Z,101289.23
2019-01-21T14:19:32.301Z,101284.91
2019-01-21T14:22:12.776Z,101293.91
2019-01-21T14:24:53.753Z,101297.92
2019-01-21T14:27:37.318Z,101291.98
2019-01-21T14:30:18.109Z,101293.94
2019-01-21T14:32:58.243Z,101300.50
2019-01-21T14:35:39.039Z,101301.09
2019-01-21T14:38:20.041Z,101302.47
2019-01-21T14:41:00.626Z,101307.63
2019-01-21T14:43:41.240Z,101299.45
2019-01-21T14:46:22.177Z,101309.00
2019-01-21T14:49:04.745Z,101303.22
2019-01-21T14:51:44.922Z,101299.52
2019-01-21T14:54:25.137Z,101295.52
2019-01-21T14:57:05.765Z,101293.06
2019-01-21T14:59:46.905Z,101292.84
2019-01-21T15:02:27.379Z,101288.23
2019-01-21T15:05:07.771Z,101293.56
2019-01-21T15:07:48.686Z,101287.89
2019-01-21T15:10:29.388Z,101290.22
2019-01-21T15:13:09.781Z,101289.12
2019-01-21T15:15:50.601Z,101292.17
2019-01-21T15:18:30.578Z,101293.67
2019-01-21T15:21:11.095Z,101296.36
2019-01-21T15:23:51.826Z,101299.50
2019-01-21T15:26:32.765Z,101303.44
2019-01-21T15:29:15.910Z,101302.90
2019-01-21T15:31:57.775Z,101304.32
2019-01-21T15:34:38.768Z,101309.20
2019-01-21T15:37:19.245Z,101306.16
2019-01-21T15:40:00.311Z,101305.50
2019-01-21T15:42:40.781Z,101299.30
2019-01-21T15:47:58.806Z,101300.61
2019-01-21T15:50:38.678Z,101305.41
2019-01-21T15:53:19.334Z,101307.22
2019-01-21T15:56:00.091Z,101308.75
2019-01-21T15:58:40.788Z,101305.22
2019-01-21T16:01:21.173Z,101303.00
2019-01-21T16:04:01.596Z,101301.11
2019-01-21T16:06:42.047Z,101308.45
2019-01-21T16:09:22.480Z,101305.36
2019-01-21T16:12:02.587Z,101299.50
2019-01-21T16:14:43.017Z,101299.10
2019-01-21T16:17:23.385Z,101298.81
2019-01-21T16:20:04.267Z,101304.37
2019-01-21T16:22:44.828Z,101302.95
2019-01-21T16:25:25.216Z,101300.23
2019-01-21T16:28:05.753Z,101298.84
2019-01-21T16:30:46.073Z,101290.91
2019-01-21T16:33:26.450Z,101287.92
2019-01-21T16:36:07.306Z,101283.75
2019-01-21T16:38:47.779Z,101277.05
2019-01-21T16:41:28.967Z,101279.05
2019-01-21T16:44:08.944Z,101273.34
2019-01-21T16:46:49.932Z,101283.35
2019-01-21T16:49:30.353Z,101273.72
2019-01-21T16:52:10.824Z,101278.59
2019-01-21T16:54:51.389Z,101272.58
2019-01-21T16:57:32.254Z,101272.32
2019-01-21T17:00:12.603Z,101274.57
2019-01-21T17:02:53.604Z,101262.19
2019-01-21T17:05:34.557Z,101264.55
2019-01-21T17:08:15.854Z,101264.83
2019-01-21T17:10:56.988Z,101269.04
2019-01-21T17:13:38.066Z,101270.83
2019-01-21T17:16:19.347Z,101265.58
2019-01-21T17:19:00.657Z,101270.45
2019-01-21T17:21:41.413Z,101273.08
2019-01-21T17:24:22.536Z,101271.39
2019-01-21T17:27:02.999Z,101269.36
2019-01-21T17:29:43.378Z,101267.68
2019-01-21T17:32:23.896Z,101268.33
2019-01-21T17:35:05.354Z,101264.68
2019-01-21T17:37:46.281Z,101265.62
2019-01-21T17:40:26.973Z,101265.25
2019-01-21T17:43:08.162Z,101267.87
2019-01-21T17:45:49.013Z,101263.58
2019-01-21T17:48:29.814Z,101259.83
2019-01-21T17:53:55.257Z,101273.02
2019-01-21T17:56:36.500Z,101274.90
2019-01-21T17:59:18.476Z,101272.83
2019-01-21T18:01:59.108Z,101271.98
2019-01-21T18:04:39.315Z,101279.75
2019-01-21T18:07:20.315Z,101275.25
2019-01-21T18:10:02.848Z,101271.59
2019-01-21T18:12:43.208Z,101277.58
2019-01-21T18:15:23.968Z,101279.26
2019-01-21T18:18:04.448Z,101274.70
2019-01-21T18:20:45.401Z,101271.72
2019-01-21T18:23:26.297Z,101264.88
2019-01-21T18:26:07.362Z,101265.91
2019-01-21T18:28:47.807Z,101267.02
2019-01-21T18:31:28.603Z,101260.28
2019-01-21T18:34:08.958Z,101259.80
2019-01-21T18:36:49.616Z,101259.25
2019-01-21T18:39:30.001Z,101257.91
2019-01-21T18:42:11.647Z,101255.02
2019-01-21T18:44:52.835Z,101261.28
2019-01-21T18:47:33.709Z,101257.89
2019-01-21T18:50:14.084Z,101257.34
2019-01-21T18:52:56.110Z,101260.58
2019-01-21T18:55:36.737Z,101257.70
2019-01-21T18:58:17.588Z,101255.92
2019-01-21T19:00:58.236Z,101246.31
2019-01-21T19:03:38.715Z,101244.79
2019-01-21T19:06:19.596Z,101243.48
2019-01-21T19:09:00.228Z,101241.34
2019-01-21T19:11:40.849Z,101243.70
2019-01-21T19:14:21.505Z,101246.48
2019-01-21T19:17:02.178Z,101243.87
2019-01-21T19:19:43.060Z,101244.17
2019-01-21T19:22:24.331Z,101243.80
2019-01-21T19:25:05.632Z,101238.38
2019-01-21T19:27:46.460Z,101236.13
2019-01-21T19:30:27.483Z,101244.06
2019-01-21T19:33:07.702Z,101234.64
2019-01-21T19:35:48.339Z,101232.59
2019-01-21T19:38:28.953Z,101229.50
2019-01-21T19:41:09.511Z,101227.45
2019-01-21T19:43:50.720Z,101217.83
2019-01-21T19:46:31.364Z,101217.81
2019-01-21T19:49:11.919Z,101218.44
2019-01-21T19:51:52.984Z,101214.59
2019-01-21T19:54:33.877Z,101214.50
2019-01-21T19:57:14.283Z,101217.83
2019-01-21T19:59:54.696Z,101226.73
2019-01-21T20:02:35.435Z,101223.08
2019-01-21T20:05:16.160Z,101220.58
2019-01-21T20:07:57.178Z,101224.25
2019-01-21T20:10:37.894Z,101220.95
2019-01-21T20:13:18.721Z,101210.41
2019-01-21T20:15:59.178Z,101212.02
2019-01-21T20:18:40.051Z,101211.88
2019-01-21T20:21:20.505Z,101213.03
2019-01-21T20:24:01.107Z,101211.46
2019-01-21T20:26:41.762Z,101200.72
2019-01-21T20:29:22.875Z,101210.45
2019-01-21T20:32:03.851Z,101211.67
2019-01-21T20:34:44.650Z,101213.72
2019-01-21T20:37:25.203Z,101213.77
2019-01-21T20:40:06.453Z,101214.40
2019-01-21T20:42:47.379Z,101211.69
2019-01-21T20:45:28.059Z,101212.85
2019-01-21T20:48:08.824Z,101211.17
2019-01-21T20:50:49.445Z,101214.81
2019-01-21T20:53:30.646Z,101212.98
2019-01-21T20:56:12.165Z,101217.77
2019-01-21T20:58:53.163Z,101219.63
2019-01-21T21:01:34.093Z,101221.05
2019-01-21T21:04:15.056Z,101214.28
2019-01-21T21:06:56.004Z,101208.50
2019-01-21T21:09:36.957Z,101203.53
2019-01-21T21:12:17.976Z,101205.48
2019-01-21T21:14:58.332Z,101206.76
2019-01-21T21:17:39.312Z,101206.91
2019-01-21T21:20:20.127Z,101211.57
2019-01-21T21:23:01.112Z,101210.11
2019-01-21T21:25:41.917Z,101207.32
2019-01-21T21:28:22.980Z,101210.34
2019-01-21T21:31:04.308Z,101212.73
2019-01-21T21:33:44.943Z,101205.05
2019-01-21T21:36:25.592Z,101193.20
2019-01-21T21:42:17.365Z,101192.43
2019-01-21T21:44:58.107Z,101204.86
2019-01-21T21:47:39.491Z,101199.45
2019-01-21T21:50:20.600Z,101195.02
2019-01-21T21:53:01.547Z,101199.55
2019-01-21T21:55:42.577Z,101197.78
2019-01-21T21:58:23.771Z,101195.89
2019-01-21T22:01:04.692Z,101193.37
2019-01-21T22:03:45.457Z,101197.56
2019-01-21T22:06:27.089Z,101200.89
2019-01-21T22:09:08.024Z,101200.33
2019-01-21T22:11:48.848Z,101199.70
2019-01-21T22:14:29.295Z,101198.69
2019-01-21T22:17:10.100Z,101198.98
2019-01-21T22:19:51.679Z,101198.11
2019-01-21T22:22:34.811Z,101201.52
2019-01-21T22:25:13.634Z,101198.12
2019-01-21T22:27:54.262Z,101198.36
2019-01-21T22:30:35.855Z,101201.99
2019-01-21T22:33:16.145Z,101202.14
2019-01-21T22:35:57.021Z,101211.36
2019-01-21T22:38:38.301Z,101209.59
2019-01-21T22:41:19.001Z,101212.75
2019-01-21T22:43:59.700Z,101219.01
2019-01-21T22:46:40.661Z,101224.36
2019-01-21T22:49:21.290Z,101231.26
2019-01-21T22:52:02.564Z,101236.75
2019-01-21T22:54:43.518Z,101240.42
2019-01-21T22:57:24.177Z,101235.59
2019-01-21T23:00:05.170Z,101241.69
2019-01-21T23:02:46.137Z,101248.57
2019-01-21T23:05:27.420Z,101254.11
2019-01-21T23:08:07.890Z,101256.25
2019-01-21T23:10:49.380Z,101255.14
2019-01-21T23:13:30.241Z,101249.78
2019-01-21T23:16:11.300Z,101242.20
2019-01-21T23:18:52.490Z,101243.22
2019-01-21T23:21:33.456Z,101253.65
2019-01-21T23:24:16.605Z,101260.03
2019-01-21T23:26:56.000Z,101262.78
2019-01-21T23:29:36.994Z,101268.40
2019-01-21T23:32:17.770Z,101271.44
2019-01-21T23:34:58.746Z,101271.30
2019-01-21T23:37:40.161Z,101277.91
2019-01-21T23:40:21.760Z,101286.57
2019-01-21T23:43:02.778Z,101300.53
2019-01-21T23:45:43.461Z,101309.80
2019-01-21T23:48:24.325Z,101310.64
2019-01-21T23:51:04.677Z,101304.53
2019-01-21T23:53:45.777Z,101308.81
2019-01-21T23:56:26.883Z,101309.66
2019-01-21T23:59:08.189Z,101311.42
